createdAt,value
2023-03-12T00:01:21.522Z,4.75
2023-03-12T00:03:49.925Z,5.93
2023-03-12T00:06:18.424Z,5.10
2023-03-12T00:08:45.705Z,5.57
2023-03-12T00:11:16.260Z,6.93
2023-03-12T00:13:43.802Z,4.85
2023-03-12T00:16:16.398Z,3.95
2023-03-12T00:18:44.606Z,4.45
2023-03-12T00:21:12.007Z,4.30
2023-03-12T00:23:39.224Z,4.97
2023-03-12T00:26:12.796Z,4.95
2023-03-12T00:28:41.293Z,5.85
2023-03-12T00:31:23.838Z,4.07
2023-03-12T00:33:51.176Z,5.15
2023-03-12T00:36:21.417Z,4.10
2023-03-12T00:38:48.688Z,4.25
2023-03-12T00:41:15.992Z,4.38
2023-03-12T00:43:43.233Z,4.60
2023-03-12T00:46:10.526Z,3.97
2023-03-12T00:48:37.841Z,4.78
2023-03-12T00:51:05.843Z,4.82
2023-03-12T00:53:33.252Z,4.75
2023-03-12T00:56:00.540Z,4.82
2023-03-12T00:58:27.822Z,5.45
2023-03-12T01:00:55.147Z,4.30
2023-03-12T01:03:22.472Z,4.55
2023-03-12T01:05:54.027Z,5.35
2023-03-12T01:08:22.989Z,4.57
2023-03-12T01:10:50.460Z,6.53
2023-03-12T01:13:18.247Z,4.57
2023-03-12T01:15:45.556Z,4.68
2023-03-12T01:18:12.972Z,5.13
2023-03-12T01:20:41.017Z,5.25
2023-03-12T01:23:08.375Z,4.20
2023-03-12T01:25:36.722Z,4.18
2023-03-12T01:28:04.244Z,4.22
2023-03-12T01:30:31.606Z,5.22
2023-03-12T01:32:59.046Z,3.35
2023-03-12T01:35:26.745Z,3.40
2023-03-12T01:37:56.048Z,4.43
2023-03-12T01:40:29.072Z,3.45
2023-03-12T01:42:58.496Z,3.65
2023-03-12T01:46:11.079Z,3.55
2023-03-12T01:48:45.737Z,4.85
2023-03-12T01:53:47.142Z,4.28
2023-03-12T01:56:17.388Z,4.30
2023-03-12T01:58:49.822Z,5.78
2023-03-12T02:01:20.062Z,3.92
2023-03-12T02:03:52.094Z,4.88
2023-03-12T02:06:25.358Z,3.47
2023-03-12T02:08:53.340Z,4.18
2023-03-12T02:11:20.689Z,4.47
2023-03-12T02:13:48.041Z,5.35
2023-03-12T02:16:15.520Z,3.45
2023-03-12T02:18:43.883Z,4.03
2023-03-12T02:21:34.010Z,3.92
2023-03-12T02:24:13.830Z,3.58
2023-03-12T02:26:41.843Z,4.20
2023-03-12T02:29:10.395Z,4.10
2023-03-12T02:31:58.862Z,4.05
2023-03-12T02:34:26.207Z,2.85
2023-03-12T02:36:53.527Z,3.95
2023-03-12T02:39:21.075Z,4.55
2023-03-12T02:41:58.801Z,3.85
2023-03-12T02:44:31.593Z,2.78
2023-03-12T02:47:00.787Z,3.83
2023-03-12T02:49:32.459Z,3.63
2023-03-12T02:52:00.409Z,3.42
2023-03-12T02:54:27.936Z,3.47
2023-03-12T02:56:55.729Z,2.65
2023-03-12T02:59:26.578Z,4.15
2023-03-12T03:01:57.863Z,4.10
2023-03-12T03:04:26.586Z,3.35
2023-03-12T03:06:54.049Z,3.33
2023-03-12T03:09:22.426Z,2.88
2023-03-12T03:11:50.617Z,3.53
2023-03-12T03:14:18.473Z,4.43
2023-03-12T03:16:45.939Z,3.40
2023-03-12T03:19:13.205Z,3.60
2023-03-12T03:21:40.634Z,3.97
2023-03-12T03:24:08.024Z,4.35
2023-03-12T03:26:35.327Z,2.55
2023-03-12T03:29:02.985Z,3.60
2023-03-12T03:31:30.295Z,2.60
2023-03-12T03:33:57.648Z,2.97
2023-03-12T03:36:24.971Z,3.70
2023-03-12T03:38:52.225Z,4.13
2023-03-12T03:41:20.942Z,2.50
2023-03-12T03:43:48.312Z,3.22
2023-03-12T03:46:16.291Z,2.78
2023-03-12T03:48:43.861Z,3.63
2023-03-12T03:51:11.847Z,2.45
2023-03-12T03:53:39.343Z,3.22
2023-03-12T03:56:12.261Z,3.20
2023-03-12T03:58:39.526Z,2.72
2023-03-12T04:01:07.111Z,2.85
2023-03-12T04:03:35.213Z,5.65
2023-03-12T04:06:04.945Z,3.65
2023-03-12T04:08:35.482Z,3.10
2023-03-12T04:11:11.651Z,3.28
2023-03-12T04:13:39.352Z,2.88
2023-03-12T04:16:07.448Z,3.55
2023-03-12T04:18:36.293Z,2.75
2023-03-12T04:21:06.075Z,4.07
2023-03-12T04:23:33.857Z,3.13
2023-03-12T04:26:01.516Z,4.63
2023-03-12T04:28:28.979Z,3.50
2023-03-12T04:31:01.978Z,3.17
2023-03-12T04:33:31.317Z,3.63
2023-03-12T04:35:59.137Z,3.97
2023-03-12T04:38:27.447Z,3.42
2023-03-12T04:41:04.054Z,3.55
2023-03-12T04:43:32.312Z,3.70
2023-03-12T04:45:59.769Z,4.47
2023-03-12T04:48:28.060Z,3.60
2023-03-12T04:50:55.901Z,3.10
2023-03-12T04:53:23.662Z,4.18
2023-03-12T04:55:51.424Z,3.85
2023-03-12T04:58:19.638Z,3.22
2023-03-12T05:00:49.512Z,3.42
2023-03-12T05:03:17.649Z,3.63
2023-03-12T05:05:45.088Z,3.53
2023-03-12T05:08:12.380Z,3.25
2023-03-12T05:10:39.912Z,3.38
2023-03-12T05:13:15.260Z,3.72
2023-03-12T05:15:43.476Z,3.63
2023-03-12T05:18:10.806Z,3.05
2023-03-12T05:20:38.091Z,2.78
2023-03-12T05:23:05.448Z,3.83
2023-03-12T05:25:32.788Z,2.72
2023-03-12T05:28:00.107Z,3.97
2023-03-12T05:30:27.365Z,3.70
2023-03-12T05:32:54.668Z,4.32
2023-03-12T05:35:22.007Z,3.03
2023-03-12T05:37:49.243Z,3.70
2023-03-12T05:40:16.571Z,4.03
2023-03-12T05:42:43.786Z,4.35
2023-03-12T05:45:11.301Z,3.03
2023-03-12T05:47:38.637Z,3.10
2023-03-12T05:50:06.519Z,3.85
2023-03-12T05:52:33.770Z,2.70
2023-03-12T05:55:01.044Z,2.88
2023-03-12T05:57:28.353Z,2.80
2023-03-12T05:59:55.574Z,2.53
2023-03-12T06:02:23.014Z,3.30
2023-03-12T06:04:50.357Z,3.38
2023-03-12T06:07:17.696Z,3.72
2023-03-12T06:09:44.971Z,3.92
2023-03-12T06:12:12.294Z,3.00
2023-03-12T06:14:39.577Z,3.53
2023-03-12T06:17:06.894Z,2.92
2023-03-12T06:19:34.167Z,3.55
2023-03-12T06:22:01.536Z,2.97
2023-03-12T06:24:28.819Z,3.47
2023-03-12T06:26:56.065Z,3.13
2023-03-12T06:29:23.308Z,3.72
2023-03-12T06:31:52.253Z,3.60
2023-03-12T06:34:19.719Z,3.17
2023-03-12T06:36:47.020Z,3.10
2023-03-12T06:39:14.293Z,2.70
2023-03-12T06:41:41.897Z,3.17
2023-03-12T06:44:09.331Z,2.70
2023-03-12T06:46:37.113Z,2.65
2023-03-12T06:49:04.805Z,2.88
2023-03-12T06:51:32.081Z,3.22
2023-03-12T06:54:02.209Z,2.92
2023-03-12T06:56:30.775Z,3.65
2023-03-12T06:58:58.024Z,3.38
2023-03-12T07:01:25.340Z,3.70
2023-03-12T07:03:52.585Z,3.33
2023-03-12T07:06:21.911Z,3.45
2023-03-12T07:08:49.237Z,3.67
2023-03-12T07:11:17.752Z,3.95
2023-03-12T07:13:45.270Z,4.22
2023-03-12T07:16:12.940Z,5.28
2023-03-12T07:18:40.358Z,4.80
2023-03-12T07:21:07.901Z,4.32
2023-03-12T07:23:35.138Z,6.22
2023-03-12T07:26:07.191Z,5.88
2023-03-12T07:28:34.473Z,5.45
2023-03-12T07:31:05.400Z,6.38
2023-03-12T07:33:33.306Z,5.75
2023-03-12T07:36:01.036Z,6.05
2023-03-12T07:38:28.568Z,7.75
2023-03-12T07:40:57.564Z,6.40
2023-03-12T07:43:25.438Z,7.65
2023-03-12T07:45:53.364Z,8.07
2023-03-12T07:48:20.983Z,7.63
2023-03-12T07:50:48.736Z,9.05
2023-03-12T07:53:16.102Z,9.48
2023-03-12T07:55:46.305Z,8.32
2023-03-12T07:58:15.548Z,11.73
2023-03-12T08:00:43.040Z,9.07
2023-03-12T08:03:10.657Z,9.30
2023-03-12T08:05:38.361Z,10.63
2023-03-12T08:08:06.092Z,10.77
2023-03-12T08:10:33.495Z,10.77
2023-03-12T08:13:00.829Z,10.43
2023-03-12T08:15:28.146Z,11.65
2023-03-12T08:17:55.487Z,11.35
2023-03-12T08:20:22.787Z,11.55
2023-03-12T08:22:50.025Z,11.80
2023-03-12T08:25:18.611Z,11.85
2023-03-12T08:27:45.890Z,13.23
2023-03-12T08:30:13.567Z,12.82
2023-03-12T08:32:41.123Z,14.00
2023-03-12T08:35:10.124Z,13.90
2023-03-12T08:37:37.872Z,13.40
2023-03-12T08:40:14.319Z,14.85
2023-03-12T08:42:43.058Z,14.60
2023-03-12T08:45:12.159Z,14.93
2023-03-12T08:47:41.659Z,15.65
2023-03-12T08:50:11.310Z,15.10
2023-03-12T08:52:38.878Z,14.00
2023-03-12T08:55:06.608Z,15.27
2023-03-12T08:57:33.887Z,14.38
2023-03-12T09:00:01.328Z,15.73
2023-03-12T09:02:28.721Z,16.25
2023-03-12T09:04:56.006Z,15.75
2023-03-12T09:07:23.484Z,15.13
2023-03-12T09:09:50.725Z,18.23
2023-03-12T09:12:18.308Z,16.15
2023-03-12T09:17:33.021Z,17.70
2023-03-12T09:20:00.789Z,19.95
2023-03-12T09:22:30.449Z,17.83
2023-03-12T09:24:57.779Z,18.90
2023-03-12T09:27:25.112Z,20.23
2023-03-12T09:30:00.567Z,17.63
2023-03-12T09:32:28.956Z,21.90
2023-03-12T09:34:56.398Z,18.60
2023-03-12T09:37:24.422Z,15.90
2023-03-12T09:39:53.040Z,17.10
2023-03-12T09:42:44.045Z,20.10
2023-03-12T09:45:38.122Z,19.67
2023-03-12T09:48:12.488Z,21.95
2023-03-12T09:50:43.852Z,19.15
2023-03-12T09:53:20.268Z,22.08
2023-03-12T09:55:50.557Z,18.35
2023-03-12T09:58:30.980Z,19.42
2023-03-12T10:01:18.127Z,19.08
2023-03-12T10:03:55.716Z,18.67
2023-03-12T10:06:29.939Z,24.02
2023-03-12T10:09:18.710Z,19.20
2023-03-12T10:12:14.633Z,19.08
2023-03-12T10:14:41.835Z,21.02
2023-03-12T10:17:30.761Z,19.45
2023-03-12T10:20:17.215Z,21.83
2023-03-12T10:23:19.465Z,21.95
2023-03-12T10:25:59.430Z,20.58
2023-03-12T10:28:37.647Z,20.10
2023-03-12T10:31:16.149Z,19.58
2023-03-12T10:33:59.621Z,19.25
2023-03-12T10:36:36.649Z,22.45
2023-03-12T10:39:06.833Z,20.48
2023-03-12T10:41:35.033Z,18.38
2023-03-12T10:44:07.733Z,19.38
2023-03-12T10:46:41.194Z,22.30
2023-03-12T10:49:26.002Z,20.45
2023-03-12T10:52:15.774Z,20.00
2023-03-12T10:54:45.206Z,19.65
2023-03-12T10:57:15.379Z,17.48
2023-03-12T10:59:45.460Z,25.38
2023-03-12T11:02:34.549Z,23.10
2023-03-12T11:05:09.791Z,22.20
2023-03-12T11:07:37.193Z,20.02
2023-03-12T11:10:04.536Z,21.13
2023-03-12T11:12:34.728Z,23.50
2023-03-12T11:15:21.300Z,23.23
2023-03-12T11:17:48.856Z,22.15
2023-03-12T11:20:34.066Z,22.02
2023-03-12T11:23:20.044Z,22.75
2023-03-12T11:26:00.163Z,20.10
2023-03-12T11:28:38.106Z,21.35
2023-03-12T11:31:29.477Z,20.05
2023-03-12T11:34:05.037Z,23.92
2023-03-12T11:36:45.682Z,21.48
2023-03-12T11:39:45.964Z,20.88
2023-03-12T11:42:34.569Z,22.25
2023-03-12T11:45:07.557Z,23.50
2023-03-12T11:47:54.263Z,26.92
2023-03-12T11:50:43.520Z,25.70
2023-03-12T11:53:28.673Z,26.10
2023-03-12T11:56:01.722Z,28.60
2023-03-12T11:58:50.734Z,24.25
2023-03-12T12:01:32.243Z,26.70
2023-03-12T12:04:51.521Z,27.58
2023-03-12T12:07:42.273Z,27.35
2023-03-12T12:10:15.528Z,25.73
2023-03-12T12:13:00.405Z,26.88
2023-03-12T12:15:52.949Z,25.73
2023-03-12T12:19:10.428Z,26.25
2023-03-12T12:21:49.361Z,26.23
2023-03-12T12:24:31.797Z,23.50
2023-03-12T12:27:28.319Z,24.33
2023-03-12T12:30:07.294Z,30.95
2023-03-12T12:32:52.692Z,28.50
2023-03-12T12:35:20.029Z,25.23
2023-03-12T12:38:03.709Z,23.65
2023-03-12T12:40:40.890Z,20.80
2023-03-12T12:43:27.950Z,18.73
2023-03-12T12:46:02.312Z,21.38
2023-03-12T12:48:38.425Z,18.25
2023-03-12T12:51:08.996Z,23.05
2023-03-12T12:53:58.412Z,20.05
2023-03-12T12:56:47.921Z,22.77
2023-03-12T12:59:45.016Z,23.63
2023-03-12T13:02:23.137Z,24.15
2023-03-12T13:04:50.909Z,26.85
2023-03-12T13:07:20.988Z,26.92
2023-03-12T13:09:54.000Z,28.30
2023-03-12T13:12:34.788Z,23.38
2023-03-12T13:15:22.721Z,26.00
2023-03-12T13:17:55.870Z,25.80
2023-03-12T13:20:32.546Z,22.95
2023-03-12T13:23:31.242Z,15.45
2023-03-12T13:26:25.704Z,18.73
2023-03-12T13:28:56.950Z,18.53
2023-03-12T13:31:30.006Z,20.85
2023-03-12T13:34:09.046Z,24.20
2023-03-12T13:36:39.284Z,20.00
2023-03-12T13:39:15.415Z,19.38
2023-03-12T13:41:45.379Z,21.60
2023-03-12T13:44:31.255Z,44.95
2023-03-12T13:47:20.094Z,34.58
2023-03-12T13:49:56.412Z,30.65
2023-03-12T13:52:31.289Z,28.55
2023-03-12T13:55:01.382Z,29.20
2023-03-12T13:57:28.575Z,28.45
2023-03-12T13:59:58.064Z,28.10
2023-03-12T14:02:34.336Z,26.52
2023-03-12T14:05:11.244Z,25.92
2023-03-12T14:07:57.121Z,26.55
2023-03-12T14:10:43.457Z,24.20
2023-03-12T14:13:23.194Z,27.05
2023-03-12T14:15:58.204Z,21.60
2023-03-12T14:18:30.341Z,24.42
2023-03-12T14:21:00.451Z,25.15
2023-03-12T14:23:39.955Z,25.58
2023-03-12T14:26:08.517Z,25.67
2023-03-12T14:28:42.668Z,26.52
2023-03-12T14:31:14.849Z,24.02
2023-03-12T14:34:01.865Z,23.83
2023-03-12T14:37:06.869Z,23.55
2023-03-12T14:39:56.422Z,22.23
2023-03-12T14:42:29.662Z,23.92
2023-03-12T14:45:01.955Z,20.45
2023-03-12T14:47:29.782Z,22.10
2023-03-12T14:49:58.480Z,21.58
2023-03-12T14:52:29.517Z,21.77
2023-03-12T14:55:02.554Z,22.80
2023-03-12T14:57:30.319Z,19.63
2023-03-12T14:59:59.341Z,23.42
2023-03-12T15:02:28.575Z,21.92
2023-03-12T15:04:58.385Z,22.98
2023-03-12T15:07:34.730Z,21.23
2023-03-12T15:10:06.108Z,19.85
2023-03-12T15:12:37.941Z,19.67
2023-03-12T15:15:20.385Z,19.52
2023-03-12T15:17:47.800Z,19.98
2023-03-12T15:20:16.836Z,20.10
2023-03-12T15:22:44.716Z,19.08
2023-03-12T15:25:28.851Z,19.42
2023-03-12T15:28:11.080Z,20.35
2023-03-12T15:30:39.728Z,19.67
2023-03-12T15:33:14.834Z,20.40
2023-03-12T15:36:01.927Z,21.83
2023-03-12T15:38:32.898Z,24.17
2023-03-12T15:41:09.545Z,21.08
2023-03-12T15:43:37.713Z,18.80
2023-03-12T15:46:06.967Z,22.35
2023-03-12T15:48:38.589Z,21.65
2023-03-12T15:51:29.569Z,21.50
2023-03-12T15:54:02.465Z,20.55
2023-03-12T15:56:34.774Z,22.90
2023-03-12T15:59:18.926Z,29.75
2023-03-12T16:01:56.842Z,22.15
2023-03-12T16:04:24.689Z,22.70
2023-03-12T16:06:53.393Z,22.15
2023-03-12T16:09:26.134Z,25.25
2023-03-12T16:11:55.618Z,24.23
2023-03-12T16:14:33.020Z,27.42
2023-03-12T16:17:01.616Z,20.92
2023-03-12T16:19:33.151Z,20.52
2023-03-12T16:22:00.582Z,25.08
2023-03-12T16:24:27.963Z,26.63
2023-03-12T16:26:58.624Z,22.52
2023-03-12T16:29:34.854Z,22.38
2023-03-12T16:32:02.758Z,21.83
2023-03-12T16:34:30.197Z,24.00
2023-03-12T16:36:58.034Z,22.85
2023-03-12T16:39:25.639Z,20.40
2023-03-12T16:41:52.958Z,20.48
2023-03-12T16:44:22.355Z,20.15
2023-03-12T16:46:49.798Z,18.27
2023-03-12T16:49:20.013Z,22.77
2023-03-12T16:51:48.008Z,21.27
2023-03-12T16:54:15.376Z,19.02
2023-03-12T16:56:46.088Z,18.73
2023-03-12T16:59:38.121Z,18.45
2023-03-12T17:02:16.671Z,19.25
2023-03-12T17:04:44.168Z,21.65
2023-03-12T17:07:11.711Z,20.80
2023-03-12T17:09:39.462Z,21.55
2023-03-12T17:12:17.526Z,16.63
2023-03-12T17:14:44.823Z,19.05
2023-03-12T17:17:12.054Z,17.42
2023-03-12T17:19:39.397Z,17.35
2023-03-12T17:22:06.759Z,15.88
2023-03-12T17:24:34.116Z,18.67
2023-03-12T17:27:01.574Z,14.65
2023-03-12T17:29:28.935Z,16.23
2023-03-12T17:31:56.246Z,16.83
2023-03-12T17:34:23.499Z,15.25
2023-03-12T17:36:50.809Z,16.55
2023-03-12T17:39:18.145Z,15.85
2023-03-12T17:41:45.495Z,13.82
2023-03-12T17:44:14.795Z,14.45
2023-03-12T17:46:56.701Z,16.38
2023-03-12T17:49:26.419Z,15.07
2023-03-12T17:51:53.806Z,18.33
2023-03-12T17:54:22.185Z,15.40
2023-03-12T17:56:49.582Z,14.45
2023-03-12T17:59:16.988Z,15.48
2023-03-12T18:01:44.445Z,13.88
2023-03-12T18:04:12.032Z,17.58
2023-03-12T18:06:39.378Z,16.52
2023-03-12T18:09:06.633Z,14.15
2023-03-12T18:11:33.912Z,14.50
2023-03-12T18:14:01.214Z,16.58
2023-03-12T18:16:28.720Z,14.77
2023-03-12T18:18:56.069Z,18.92
2023-03-12T18:21:23.321Z,15.93
2023-03-12T18:23:50.814Z,16.73
2023-03-12T18:26:18.084Z,14.60
2023-03-12T18:28:45.373Z,17.15
2023-03-12T18:31:12.858Z,16.20
2023-03-12T18:33:41.783Z,16.38
2023-03-12T18:36:09.491Z,14.57
2023-03-12T18:38:36.901Z,18.35
2023-03-12T18:41:10.515Z,18.75
2023-03-12T18:43:38.386Z,18.52
2023-03-12T18:46:06.489Z,17.48
2023-03-12T18:48:33.867Z,24.63
2023-03-12T18:51:01.403Z,21.85
2023-03-12T18:53:29.227Z,20.10
2023-03-12T18:55:58.456Z,25.17
2023-03-12T18:58:29.004Z,22.45
2023-03-12T19:00:58.152Z,22.00
2023-03-12T19:03:26.174Z,22.70
2023-03-12T19:06:15.098Z,22.95
2023-03-12T19:08:43.182Z,22.40
2023-03-12T19:11:13.362Z,21.35
2023-03-12T19:13:41.503Z,26.30
2023-03-12T19:16:11.500Z,24.80
2023-03-12T19:18:39.661Z,25.60
2023-03-12T19:21:10.090Z,26.85
2023-03-12T19:23:37.385Z,23.90
2023-03-12T19:26:05.314Z,24.30
2023-03-12T19:28:33.235Z,23.73
2023-03-12T19:31:12.063Z,23.48
2023-03-12T19:33:39.454Z,24.83
2023-03-12T19:36:07.253Z,22.55
2023-03-12T19:38:34.760Z,26.67
2023-03-12T19:41:02.125Z,23.33
2023-03-12T19:43:29.452Z,24.95
2023-03-12T19:45:56.890Z,23.35
2023-03-12T19:48:27.026Z,23.45
2023-03-12T19:50:55.980Z,26.38
2023-03-12T19:53:24.536Z,25.83
2023-03-12T19:55:52.134Z,22.00
2023-03-12T19:58:19.435Z,24.45
2023-03-12T20:00:47.939Z,25.60
2023-03-12T20:03:15.271Z,24.00
2023-03-12T20:05:46.722Z,28.80
2023-03-12T20:08:14.076Z,26.33
2023-03-12T20:10:41.383Z,20.20
2023-03-12T20:13:12.842Z,21.20
2023-03-12T20:15:40.403Z,20.10
2023-03-12T20:18:07.799Z,19.40
2023-03-12T20:20:35.082Z,19.90
2023-03-12T20:23:02.598Z,18.27
2023-03-12T20:25:29.836Z,19.02
2023-03-12T20:27:58.451Z,18.50
2023-03-12T20:30:25.769Z,19.70
2023-03-12T20:32:53.116Z,21.20
2023-03-12T20:35:20.504Z,22.85
2023-03-12T20:37:47.828Z,20.20
2023-03-12T20:40:15.180Z,19.85
2023-03-12T20:42:43.381Z,17.75
2023-03-12T20:45:11.225Z,18.83
2023-03-12T20:47:40.321Z,22.30
2023-03-12T20:50:09.021Z,19.58
2023-03-12T20:52:36.497Z,16.55
2023-03-12T20:55:05.103Z,18.45
2023-03-12T20:57:32.320Z,17.80
2023-03-12T21:00:00.047Z,17.75
2023-03-12T21:02:27.416Z,15.07
2023-03-12T21:04:54.695Z,16.40
2023-03-12T21:07:21.940Z,18.98
2023-03-12T21:09:49.782Z,17.67
2023-03-12T21:12:17.089Z,18.60
2023-03-12T21:14:44.416Z,17.75
2023-03-12T21:17:13.779Z,17.45
2023-03-12T21:19:42.237Z,21.58
2023-03-12T21:22:10.156Z,20.15
2023-03-12T21:24:37.528Z,18.92
2023-03-12T21:27:05.013Z,22.23
2023-03-12T21:29:32.293Z,18.60
2023-03-12T21:31:59.586Z,19.20
2023-03-12T21:34:30.035Z,22.80
2023-03-12T21:36:57.318Z,18.60
2023-03-12T21:39:24.712Z,19.17
2023-03-12T21:41:51.952Z,20.50
2023-03-12T21:44:19.330Z,19.20
2023-03-12T21:46:46.683Z,17.20
2023-03-12T21:49:14.194Z,21.20
2023-03-12T21:51:41.666Z,18.85
2023-03-12T21:54:08.924Z,19.23
2023-03-12T21:56:36.325Z,18.20
2023-03-12T21:59:04.315Z,18.45
2023-03-12T22:01:31.697Z,21.00
2023-03-12T22:04:01.024Z,18.20
2023-03-12T22:06:28.368Z,17.88
2023-03-12T22:08:56.006Z,17.95
2023-03-12T22:11:23.454Z,18.23
2023-03-12T22:13:50.792Z,18.75
2023-03-12T22:16:18.159Z,19.67
2023-03-12T22:18:46.539Z,19.58
2023-03-12T22:21:16.745Z,16.40
2023-03-12T22:23:44.053Z,17.63
2023-03-12T22:26:11.431Z,16.90
2023-03-12T22:28:38.682Z,18.80
2023-03-12T22:31:08.408Z,17.88
2023-03-12T22:33:36.303Z,17.85
2023-03-12T22:36:11.381Z,19.50
2023-03-12T22:38:39.780Z,18.17
2023-03-12T22:41:14.321Z,18.60
2023-03-12T22:46:09.028Z,17.63
2023-03-12T22:48:36.845Z,17.73
2023-03-12T22:51:05.412Z,20.13
2023-03-12T22:53:33.529Z,17.58
2023-03-12T22:56:05.996Z,17.00
2023-03-12T22:58:34.030Z,18.15
2023-03-12T23:01:04.284Z,14.60
2023-03-12T23:03:32.573Z,15.90
2023-03-12T23:06:00.213Z,15.55
2023-03-12T23:08:28.161Z,15.73
2023-03-12T23:11:00.944Z,15.95
2023-03-12T23:13:30.400Z,14.70
2023-03-12T23:16:09.671Z,16.17
2023-03-12T23:18:37.141Z,15.98
2023-03-12T23:21:10.168Z,15.32
2023-03-12T23:23:39.607Z,15.02
2023-03-12T23:26:06.935Z,13.13
2023-03-12T23:28:34.233Z,13.45
2023-03-12T23:31:04.880Z,12.20
2023-03-12T23:33:32.678Z,14.60
2023-03-12T23:36:06.270Z,14.02
2023-03-12T23:38:37.007Z,12.13
2023-03-12T23:41:08.343Z,14.55
2023-03-12T23:43:35.805Z,13.98
2023-03-12T23:46:05.280Z,13.82
2023-03-12T23:48:35.110Z,10.63
2023-03-12T23:51:29.187Z,11.07
2023-03-12T23:53:58.818Z,10.52
2023-03-12T23:56:30.976Z,13.02
2023-03-12T23:58:58.199Z,12.13
